Time;durP1;ratioP1;P1;durP2;ratioP2;P2;SDS_P1;SDS_P2;PMS_P1;PMS_P2;Temp;Humidity;BMP_temperature;BMP_pressure;BME280_temperature;BME280_humidity;BME280_pressure;Samples;Min_cycle;Max_cycle;Signal;HPM_P1;HPM_P2
2022/07/02 00:01:07;;;;;;;1.55;0.50;;;16.40;99.90;;;;;;5030192;28;20164;-81
2022/07/02 00:03:36;;;;;;;4.43;0.95;;;16.40;99.90;;;;;;5026538;28;20129;-81
2022/07/02 00:06:06;;;;;;;2.83;0.60;;;16.40;99.90;;;;;;5027792;28;20049;-82
2022/07/02 00:08:33;;;;;;;3.55;0.68;;;16.30;99.90;;;;;;5019520;28;20057;-82
2022/07/02 00:11:03;;;;;;;4.72;0.82;;;16.30;99.90;;;;;;5027912;28;20053;-81
2022/07/02 00:13:31;;;;;;;2.07;0.60;;;16.30;99.90;;;;;;5027970;28;20080;-81
2022/07/02 00:15:58;;;;;;;2.60;0.52;;;16.40;99.90;;;;;;5028295;28;20050;-85
2022/07/02 00:18:25;;;;;;;2.70;0.70;;;16.40;99.90;;;;;;5030632;28;20060;-83
2022/07/02 00:20:53;;;;;;;1.75;0.57;;;16.30;99.90;;;;;;5026659;28;20137;-84
2022/07/02 00:23:20;;;;;;;3.10;1.05;;;16.30;99.90;;;;;;5023949;28;20054;-84
2022/07/02 00:25:57;;;;;;;0.45;0.40;;;16.20;99.90;;;;;;5027337;28;20069;-84
2022/07/02 00:28:27;;;;;;;2.80;0.52;;;16.20;99.90;;;;;;5019110;28;20070;-83
2022/07/02 00:30:54;;;;;;;0.55;0.55;;;16.10;99.90;;;;;;5029682;28;20113;-84
2022/07/02 00:33:24;;;;;;;5.55;0.60;;;16.10;99.90;;;;;;5026697;28;20053;-83
2022/07/02 00:35:50;;;;;;;0.85;0.57;;;16.10;99.90;;;;;;5027329;28;20072;-83
2022/07/02 00:38:17;;;;;;;2.22;0.80;;;16.10;99.90;;;;;;5024792;28;20077;-83
2022/07/02 00:40:44;;;;;;;2.65;0.60;;;16.10;99.90;;;;;;5025712;28;20073;-84
2022/07/02 00:43:12;;;;;;;2.00;0.70;;;16.00;99.90;;;;;;5029281;28;20609;-84
2022/07/02 00:45:39;;;;;;;1.13;0.60;;;16.00;99.90;;;;;;5021615;28;20046;-84
2022/07/02 00:48:06;;;;;;;2.00;0.63;;;15.90;99.90;;;;;;5026139;28;20041;-83
2022/07/02 00:50:33;;;;;;;2.47;0.60;;;15.80;99.90;;;;;;5026595;28;20073;-84
2022/07/02 00:53:00;;;;;;;1.10;0.88;;;15.80;99.90;;;;;;5022142;28;20057;-84
2022/07/02 00:55:26;;;;;;;1.73;0.60;;;15.80;99.90;;;;;;5029624;28;20060;-81
2022/07/02 00:57:54;;;;;;;0.63;0.40;;;15.80;99.90;;;;;;5023998;28;20486;-81
2022/07/02 01:00:21;;;;;;;1.40;0.70;;;15.80;99.90;;;;;;5028273;28;20507;-82
2022/07/02 01:02:49;;;;;;;1.95;0.50;;;15.80;99.90;;;;;;5022391;28;20105;-82
2022/07/02 01:05:19;;;;;;;5.70;0.85;;;15.80;99.90;;;;;;5032648;28;20136;-82
2022/07/02 01:10:52;;;;;;;3.00;0.52;;;15.70;99.90;;;;;;5033509;28;20053;-82
2022/07/02 01:13:20;;;;;;;2.28;0.88;;;15.80;99.90;;;;;;5030424;28;20050;-80
2022/07/02 01:15:47;;;;;;;3.20;0.57;;;15.70;99.90;;;;;;5025965;28;20132;-82
2022/07/02 01:18:17;;;;;;;2.83;0.70;;;15.70;99.90;;;;;;5031762;28;20058;-81
2022/07/02 01:20:45;;;;;;;0.82;0.47;;;15.70;99.90;;;;;;5029142;28;20056;-81
2022/07/02 01:23:12;;;;;;;3.20;0.70;;;15.70;99.90;;;;;;5033705;28;20045;-81
2022/07/02 01:25:39;;;;;;;4.43;0.90;;;15.60;99.90;;;;;;5026381;28;20050;-80
2022/07/02 01:28:05;;;;;;;1.80;0.60;;;15.60;99.90;;;;;;5029673;28;20081;-82
2022/07/02 01:30:32;;;;;;;1.08;0.57;;;15.50;99.90;;;;;;5031922;28;20051;-83
2022/07/02 01:32:59;;;;;;;1.77;0.90;;;15.60;99.90;;;;;;5028216;28;20060;-81
2022/07/02 01:35:26;;;;;;;0.50;0.50;;;15.50;99.90;;;;;;5032529;28;20109;-82
2022/07/02 01:37:53;;;;;;;1.02;0.70;;;15.50;99.90;;;;;;5025455;28;20081;-82
2022/07/02 01:40:19;;;;;;;2.45;0.70;;;15.50;99.90;;;;;;5032414;28;20051;-82
2022/07/02 01:42:46;;;;;;;2.88;0.70;;;15.50;99.90;;;;;;5027649;28;20501;-81
2022/07/02 01:45:13;;;;;;;3.03;0.60;;;15.50;99.90;;;;;;5029175;28;20042;-82
2022/07/02 01:47:39;;;;;;;2.15;0.60;;;15.50;99.90;;;;;;5032023;28;20490;-82
2022/07/02 01:50:07;;;;;;;1.05;0.60;;;15.50;99.90;;;;;;5022892;28;20141;-82
2022/07/02 01:52:34;;;;;;;5.60;0.80;;;15.50;99.90;;;;;;5032985;28;20049;-83
2022/07/02 01:55:01;;;;;;;1.00;0.50;;;15.50;99.90;;;;;;5025092;28;20105;-82
2022/07/02 01:57:30;;;;;;;2.08;0.70;;;15.40;99.90;;;;;;5030794;28;20046;-82
2022/07/02 01:59:57;;;;;;;1.20;0.80;;;15.40;99.90;;;;;;5027097;28;20508;-82
2022/07/02 02:02:24;;;;;;;3.55;0.82;;;15.30;99.90;;;;;;5029895;28;20551;-82
2022/07/02 02:04:50;;;;;;;4.72;1.52;;;15.40;99.90;;;;;;5028037;28;20085;-81
2022/07/02 02:07:17;;;;;;;4.68;1.02;;;15.30;99.90;;;;;;5024580;28;20416;-81
2022/07/02 02:09:44;;;;;;;4.72;0.82;;;15.30;99.90;;;;;;5032046;28;20080;-82
2022/07/02 02:12:11;;;;;;;3.08;0.80;;;15.30;99.90;;;;;;5025469;28;20097;-82
2022/07/02 02:14:37;;;;;;;1.95;0.77;;;15.30;99.90;;;;;;5030092;28;20045;-82
2022/07/02 02:17:05;;;;;;;2.38;0.70;;;15.30;99.90;;;;;;5030151;28;20049;-82
2022/07/02 02:19:32;;;;;;;1.92;0.70;;;15.30;99.90;;;;;;5026944;28;20132;-81
2022/07/02 02:21:59;;;;;;;1.05;0.80;;;15.30;99.90;;;;;;5032968;28;20042;-83
2022/07/02 02:24:25;;;;;;;3.85;0.80;;;15.30;99.90;;;;;;5024425;28;20073;-81
2022/07/02 02:26:52;;;;;;;2.60;1.00;;;15.30;99.90;;;;;;5031679;28;20049;-81
2022/07/02 02:29:19;;;;;;;4.97;0.90;;;15.30;99.90;;;;;;5028425;28;20037;-81
2022/07/02 02:31:45;;;;;;;2.55;1.17;;;15.20;99.90;;;;;;5031853;28;20080;-82
2022/07/02 02:34:12;;;;;;;1.48;0.80;;;15.20;99.90;;;;;;5032514;28;20046;-81
2022/07/02 02:36:39;;;;;;;2.03;0.55;;;15.20;99.90;;;;;;5024684;28;20500;-82
2022/07/02 02:39:06;;;;;;;2.22;0.80;;;15.10;99.90;;;;;;5029068;28;20050;-82
2022/07/02 02:41:33;;;;;;;0.77;0.40;;;15.10;99.90;;;;;;5027822;28;20072;-81
2022/07/02 02:43:59;;;;;;;7.15;0.90;;;15.10;99.90;;;;;;5029895;28;20492;-83
2022/07/02 02:46:26;;;;;;;4.68;0.90;;;15.00;99.90;;;;;;5027140;28;20085;-84
2022/07/02 02:48:53;;;;;;;1.15;0.77;;;15.00;99.90;;;;;;5028195;28;20049;-83
2022/07/02 02:51:20;;;;;;;0.90;0.63;;;15.00;99.90;;;;;;5031287;28;20049;-83
2022/07/02 02:53:47;;;;;;;0.82;0.60;;;14.90;99.90;;;;;;5027714;28;20049;-83
2022/07/02 02:56:14;;;;;;;3.50;0.70;;;14.90;99.90;;;;;;5028722;28;20060;-84
2022/07/02 02:58:41;;;;;;;2.35;0.85;;;14.90;99.90;;;;;;5025157;28;20050;-83
2022/07/02 03:01:08;;;;;;;0.70;0.40;;;14.90;99.90;;;;;;5029896;28;20077;-84
2022/07/02 03:03:35;;;;;;;1.75;0.77;;;14.90;99.90;;;;;;5028692;28;20042;-84
2022/07/02 03:06:01;;;;;;;3.15;0.70;;;14.90;99.90;;;;;;5027292;28;20114;-84
2022/07/02 03:08:28;;;;;;;2.10;0.90;;;14.90;99.90;;;;;;5033026;28;20077;-83
2022/07/02 03:10:55;;;;;;;0.90;0.55;;;14.90;99.90;;;;;;5023620;28;20059;-83
2022/07/02 03:13:22;;;;;;;3.22;0.82;;;14.90;99.90;;;;;;5032125;28;20136;-82
2022/07/02 03:15:48;;;;;;;0.95;0.50;;;14.90;99.90;;;;;;5026577;28;20053;-81
2022/07/02 03:18:15;;;;;;;2.28;0.68;;;14.90;99.90;;;;;;5029486;28;20057;-81
2022/07/02 03:20:42;;;;;;;2.15;1.27;;;14.80;99.90;;;;;;5022675;28;20068;-82
2022/07/02 03:23:09;;;;;;;2.92;1.00;;;14.80;99.90;;;;;;5026162;28;20423;-81
2022/07/02 03:25:35;;;;;;;0.73;0.73;;;14.80;99.90;;;;;;5030898;28;20099;-81
2022/07/02 03:28:02;;;;;;;3.28;0.73;;;14.80;99.90;;;;;;5024189;28;20113;-81
2022/07/02 03:30:29;;;;;;;2.30;1.00;;;14.80;99.90;;;;;;5030913;28;20068;-82
2022/07/02 03:32:56;;;;;;;3.38;1.15;;;14.70;99.90;;;;;;5019930;28;20045;-82
2022/07/02 03:35:22;;;;;;;2.35;0.80;;;14.70;99.90;;;;;;5028215;28;20130;-82
2022/07/02 03:37:49;;;;;;;1.70;0.90;;;14.70;99.90;;;;;;5030681;28;20419;-82
2022/07/02 03:40:16;;;;;;;8.68;1.15;;;14.60;99.90;;;;;;5032057;28;20084;-81
2022/07/02 03:42:43;;;;;;;2.17;0.80;;;14.60;99.90;;;;;;5031158;28;20120;-82
2022/07/02 03:45:10;;;;;;;1.45;0.88;;;14.60;99.90;;;;;;5033765;28;20041;-82
2022/07/02 03:47:37;;;;;;;2.50;0.80;;;14.50;99.90;;;;;;5030705;28;20459;-82
2022/07/02 03:50:04;;;;;;;1.02;0.70;;;14.50;99.90;;;;;;5032620;28;20064;-82
2022/07/02 03:52:30;;;;;;;1.95;0.70;;;14.50;99.90;;;;;;5029180;28;20049;-82
2022/07/02 03:54:57;;;;;;;1.45;0.80;;;14.50;99.90;;;;;;5033091;28;20088;-82
2022/07/02 03:57:24;;;;;;;1.40;0.90;;;14.60;99.90;;;;;;5033391;28;20247;-81
2022/07/02 03:59:51;;;;;;;3.20;0.90;;;14.60;99.90;;;;;;5029276;28;20050;-82
2022/07/02 04:02:17;;;;;;;1.08;0.90;;;14.60;99.90;;;;;;5029171;28;20136;-83
2022/07/02 04:04:44;;;;;;;2.08;1.00;;;14.60;99.90;;;;;;5029060;28;20050;-81
2022/07/02 04:07:11;;;;;;;2.10;0.90;;;14.60;99.90;;;;;;5029160;28;20066;-82
2022/07/02 04:09:37;;;;;;;3.63;0.82;;;14.60;99.90;;;;;;5023533;28;20045;-81
2022/07/02 04:12:05;;;;;;;3.25;0.82;;;14.60;99.90;;;;;;5027914;28;20093;-81
2022/07/02 04:14:31;;;;;;;2.30;1.02;;;14.60;99.90;;;;;;5030490;28;20053;-81
2022/07/02 04:16:58;;;;;;;5.32;0.90;;;14.60;99.90;;;;;;5030598;28;20490;-82
2022/07/02 04:19:25;;;;;;;3.05;0.73;;;14.60;99.90;;;;;;5028040;28;20050;-82
2022/07/02 04:21:51;;;;;;;0.73;0.73;;;14.70;99.90;;;;;;5030334;28;20057;-81
2022/07/02 04:24:18;;;;;;;2.60;0.93;;;14.70;99.90;;;;;;5026129;28;20038;-82
2022/07/02 04:26:45;;;;;;;3.25;0.90;;;14.60;99.90;;;;;;5029560;28;20072;-81
2022/07/02 04:29:12;;;;;;;3.53;0.70;;;14.60;99.90;;;;;;5031730;28;20533;-82
2022/07/02 04:31:38;;;;;;;2.20;0.80;;;14.60;99.90;;;;;;5030043;28;20141;-81
2022/07/02 04:34:05;;;;;;;6.82;1.00;;;14.60;99.90;;;;;;5032627;28;20049;-82
2022/07/02 04:36:32;;;;;;;2.33;1.10;;;14.60;99.90;;;;;;5029696;28;20070;-82
2022/07/02 04:39:01;;;;;;;0.98;0.82;;;14.70;99.90;;;;;;5029252;28;20507;-85
2022/07/02 04:41:28;;;;;;;1.63;0.95;;;14.80;99.90;;;;;;5020772;28;20072;-83
2022/07/02 04:43:55;;;;;;;3.13;1.05;;;14.80;99.90;;;;;;5027463;28;20078;-83
2022/07/02 04:46:22;;;;;;;3.97;0.85;;;14.80;99.90;;;;;;5032375;28;20088;-82
2022/07/02 04:48:49;;;;;;;2.42;0.82;;;14.90;99.90;;;;;;5030110;28;20466;-81
2022/07/02 04:51:17;;;;;;;2.45;0.70;;;14.90;99.90;;;;;;5031635;28;20116;-82
2022/07/02 04:53:44;;;;;;;3.08;1.00;;;15.00;99.90;;;;;;5031991;28;20080;-82
2022/07/02 04:56:11;;;;;;;1.48;0.75;;;15.10;99.90;;;;;;5028013;28;20050;-82
2022/07/02 04:58:38;;;;;;;4.45;0.80;;;15.20;99.90;;;;;;5017242;28;20064;-82
2022/07/02 05:01:05;;;;;;;1.65;0.70;;;15.30;99.90;;;;;;5027856;28;20046;-82
2022/07/02 05:03:32;;;;;;;2.22;0.70;;;15.50;99.90;;;;;;5027958;28;20049;-82
2022/07/02 05:05:58;;;;;;;2.83;0.60;;;15.60;99.90;;;;;;5031753;28;20049;-82
2022/07/02 05:08:26;;;;;;;7.60;1.20;;;15.80;99.90;;;;;;5028871;28;20482;-82
2022/07/02 05:10:53;;;;;;;4.45;0.70;;;15.90;99.90;;;;;;5024992;28;20137;-82
2022/07/02 05:13:21;;;;;;;2.00;0.70;;;16.10;99.90;;;;;;5027907;28;20056;-81
2022/07/02 05:15:49;;;;;;;2.55;1.02;;;16.20;99.90;;;;;;5022044;28;20503;-82
2022/07/02 05:18:16;;;;;;;4.60;1.10;;;16.30;99.90;;;;;;5029865;28;20075;-82
2022/07/02 05:20:43;;;;;;;2.25;0.90;;;16.50;99.90;;;;;;5025502;28;20523;-82
2022/07/02 05:23:10;;;;;;;3.22;0.80;;;16.60;99.90;;;;;;5028687;28;20045;-82
2022/07/02 05:25:37;;;;;;;2.10;0.60;;;16.70;99.90;;;;;;5024415;28;20065;-82
2022/07/02 05:28:04;;;;;;;2.10;0.80;;;16.90;99.90;;;;;;5025227;28;20041;-82
2022/07/02 05:30:32;;;;;;;4.32;0.60;;;17.00;99.90;;;;;;5025843;28;20088;-82
2022/07/02 05:32:58;;;;;;;1.38;0.80;;;17.00;99.90;;;;;;5019772;28;20539;-82
2022/07/02 05:35:25;;;;;;;2.72;0.95;;;17.10;99.90;;;;;;5023303;28;20132;-82
2022/07/02 05:37:52;;;;;;;1.00;0.70;;;17.10;99.90;;;;;;5021876;28;20089;-83
2022/07/02 05:40:19;;;;;;;1.73;0.80;;;17.20;99.90;;;;;;5021618;28;20080;-82
2022/07/02 05:42:45;;;;;;;1.40;0.68;;;17.20;99.90;;;;;;5015269;28;20133;-81
2022/07/02 05:45:12;;;;;;;2.33;0.70;;;17.20;99.90;;;;;;5020892;28;20133;-82
2022/07/02 05:47:39;;;;;;;3.63;0.90;;;17.10;99.90;;;;;;5029909;28;20564;-82
2022/07/02 05:50:06;;;;;;;1.50;0.85;;;17.10;99.90;;;;;;5022987;28;20503;-81
2022/07/02 05:52:32;;;;;;;2.45;0.75;;;17.10;99.90;;;;;;5024587;28;20108;-82
2022/07/02 05:54:59;;;;;;;0.85;0.60;;;17.10;99.90;;;;;;5024634;28;20077;-82
2022/07/02 05:57:26;;;;;;;1.90;0.80;;;17.10;99.90;;;;;;5029111;28;20057;-82
2022/07/02 05:59:53;;;;;;;5.72;0.90;;;17.00;99.90;;;;;;5027363;28;20056;-81
2022/07/02 06:02:20;;;;;;;2.60;1.00;;;17.00;99.90;;;;;;5030229;28;20049;-82
2022/07/02 06:04:47;;;;;;;2.97;0.85;;;17.00;99.90;;;;;;5029496;28;20049;-82
2022/07/02 06:09:59;;;;;;;1.75;0.85;;;17.00;99.90;;;;;;5030178;28;20050;-82
2022/07/02 06:12:26;;;;;;;1.33;0.85;;;17.00;99.90;;;;;;5029624;28;20060;-82
2022/07/02 06:14:53;;;;;;;4.32;1.00;;;17.10;99.90;;;;;;5032789;28;20065;-81
2022/07/02 06:17:20;;;;;;;5.18;1.10;;;17.10;99.90;;;;;;5029881;28;20057;-82
2022/07/02 06:19:48;;;;;;;2.35;1.08;;;17.00;99.90;;;;;;5031858;28;20054;-81
2022/07/02 06:22:15;;;;;;;1.00;0.77;;;17.00;99.90;;;;;;5028225;28;20093;-82
2022/07/02 06:24:42;;;;;;;2.25;1.20;;;17.00;99.90;;;;;;5033382;28;20499;-82
2022/07/02 06:27:09;;;;;;;1.77;1.30;;;17.00;99.90;;;;;;5029903;28;20050;-81
2022/07/02 06:29:36;;;;;;;2.97;1.40;;;17.00;99.90;;;;;;5032685;28;20491;-82
2022/07/02 06:32:04;;;;;;;2.13;1.10;;;17.00;99.90;;;;;;5035588;28;20118;-82
2022/07/02 06:34:30;;;;;;;2.47;1.20;;;17.00;99.90;;;;;;5031132;28;20049;-83
2022/07/02 06:36:58;;;;;;;2.95;1.20;;;17.00;99.90;;;;;;5039004;28;20085;-82
2022/07/02 06:39:25;;;;;;;8.23;1.45;;;17.10;99.90;;;;;;5028559;28;20046;-80
2022/07/02 06:44:37;;;;;;;5.88;1.42;;;17.10;99.90;;;;;;5031112;28;20076;-82
2022/07/02 06:47:05;;;;;;;3.40;1.60;;;17.10;99.90;;;;;;5035463;28;20148;-82
2022/07/02 06:49:32;;;;;;;9.63;1.90;;;17.10;99.90;;;;;;5033310;28;20045;-81
2022/07/02 06:51:58;;;;;;;4.28;1.30;;;17.10;99.90;;;;;;5036374;28;20077;-82
2022/07/02 06:54:25;;;;;;;4.13;1.42;;;17.10;99.90;;;;;;5035052;28;20143;-83
2022/07/02 06:56:52;;;;;;;3.25;1.40;;;17.10;99.90;;;;;;5034710;28;20054;-82
2022/07/02 06:59:19;;;;;;;5.93;1.63;;;17.10;99.90;;;;;;5030792;28;20102;-82
2022/07/02 07:01:46;;;;;;;2.97;1.65;;;17.20;99.90;;;;;;5029118;28;20069;-82
2022/07/02 07:04:34;;;;;;;2.25;1.40;;;17.20;99.90;;;;;;5031091;28;20077;-81
2022/07/02 07:07:03;;;;;;;3.05;1.60;;;17.30;99.90;;;;;;5033235;28;20050;-82
2022/07/02 07:09:30;;;;;;;3.47;1.70;;;17.30;99.90;;;;;;5029173;28;20042;-82
2022/07/02 07:11:59;;;;;;;3.70;1.73;;;17.30;99.90;;;;;;5034116;28;20060;-83
2022/07/02 07:14:26;;;;;;;2.60;1.73;;;17.30;99.90;;;;;;5033525;28;20058;-83
2022/07/02 07:16:53;;;;;;;3.28;1.65;;;17.30;99.90;;;;;;5033470;28;20068;-82
2022/07/02 07:19:19;;;;;;;4.93;1.83;;;17.30;99.90;;;;;;5039490;28;20100;-81
2022/07/02 07:21:46;;;;;;;3.78;1.88;;;17.30;99.90;;;;;;5046564;28;20111;-82
2022/07/02 07:24:13;;;;;;;2.15;1.55;;;17.40;99.90;;;;;;5041072;28;20072;-82
2022/07/02 07:26:40;;;;;;;3.90;1.80;;;17.40;99.90;;;;;;5041559;28;20053;-81
2022/07/02 07:29:07;;;;;;;2.40;1.80;;;17.40;99.90;;;;;;5045708;28;20053;-81
2022/07/02 07:31:36;;;;;;;4.32;1.50;;;17.40;99.90;;;;;;5032153;28;20055;-83
2022/07/02 07:34:04;;;;;;;5.88;1.83;;;17.40;99.90;;;;;;5038383;28;20049;-80
2022/07/02 07:36:31;;;;;;;4.00;1.60;;;17.50;99.90;;;;;;5027766;28;20050;-81
2022/07/02 07:38:57;;;;;;;3.63;1.58;;;17.50;99.90;;;;;;5026844;28;20543;-82
2022/07/02 07:41:24;;;;;;;2.95;1.60;;;17.60;99.90;;;;;;5031824;28;20045;-82
2022/07/02 07:43:52;;;;;;;2.08;1.52;;;17.60;99.90;;;;;;5029859;28;20050;-82
2022/07/02 07:46:19;;;;;;;3.30;1.63;;;17.70;99.90;;;;;;5013760;28;20046;-82
2022/07/02 07:48:47;;;;;;;3.55;1.75;;;17.70;99.90;;;;;;5020333;28;20046;-82
2022/07/02 07:51:15;;;;;;;1.88;1.48;;;17.70;99.90;;;;;;5025088;28;20109;-84
2022/07/02 07:53:45;;;;;;;2.08;1.77;;;17.80;99.90;;;;;;5027086;28;20058;-81
2022/07/02 07:56:14;;;;;;;3.63;1.77;;;17.80;99.90;;;;;;5027025;28;20128;-81
2022/07/02 07:58:42;;;;;;;3.80;2.20;;;17.90;99.90;;;;;;5014415;28;20420;-84
2022/07/02 08:01:08;;;;;;;3.58;1.58;;;17.90;99.90;;;;;;5025803;28;20471;-82
2022/07/02 08:03:35;;;;;;;3.95;1.48;;;17.90;99.90;;;;;;5028373;28;20081;-83
2022/07/02 08:06:02;;;;;;;3.50;1.50;;;18.00;99.90;;;;;;5030841;28;20046;-83
2022/07/02 08:08:29;;;;;;;4.00;1.75;;;18.00;99.90;;;;;;5015590;28;20069;-83
2022/07/02 08:10:55;;;;;;;3.03;1.45;;;18.10;99.90;;;;;;5028467;28;20136;-82
2022/07/02 08:13:22;;;;;;;2.70;1.10;;;18.10;99.90;;;;;;5023314;28;20052;-82
2022/07/02 08:15:49;;;;;;;1.70;1.38;;;18.20;99.90;;;;;;5017474;28;20081;-79
2022/07/02 08:18:17;;;;;;;2.63;1.27;;;18.20;99.90;;;;;;5013101;28;20064;-81
2022/07/02 08:20:43;;;;;;;3.13;1.20;;;18.30;99.90;;;;;;5026768;28;20141;-81
2022/07/02 08:23:13;;;;;;;3.47;0.90;;;18.30;99.90;;;;;;5025150;28;20053;-82
2022/07/02 08:25:40;;;;;;;2.83;1.20;;;18.30;99.90;;;;;;5013682;28;20049;-82
2022/07/02 08:28:07;;;;;;;1.58;1.27;;;18.30;99.90;;;;;;5014497;28;20491;-82
2022/07/02 08:30:34;;;;;;;3.80;0.60;;;18.40;99.90;;;;;;5009663;28;20065;-82
2022/07/02 08:33:01;;;;;;;4.07;0.80;;;18.40;99.90;;;;;;5022915;28;20512;-82
2022/07/02 08:35:28;;;;;;;5.50;1.20;;;18.50;99.90;;;;;;5021672;28;20079;-83
2022/07/02 08:37:55;;;;;;;3.00;0.90;;;18.50;99.90;;;;;;5025932;28;20081;-83
2022/07/02 08:40:23;;;;;;;1.13;0.93;;;18.60;99.90;;;;;;5023898;28;20153;-82
2022/07/02 08:42:53;;;;;;;3.35;1.25;;;18.60;99.90;;;;;;5013676;28;20046;-82
2022/07/02 08:45:22;;;;;;;2.40;0.73;;;18.70;99.90;;;;;;5014515;28;20128;-82
2022/07/02 08:47:52;;;;;;;2.60;0.87;;;18.70;99.90;;;;;;5029146;28;20106;-81
2022/07/02 08:50:20;;;;;;;3.63;0.90;;;18.80;99.90;;;;;;5033098;28;20333;-81
2022/07/02 08:52:50;;;;;;;6.88;1.77;;;18.80;99.90;;;;;;5022187;28;20050;-82
2022/07/02 08:55:21;;;;;;;3.60;0.93;;;18.80;99.90;;;;;;5025349;28;20073;-80
2022/07/02 08:57:49;;;;;;;0.90;0.80;;;18.90;99.90;;;;;;5022268;28;20104;-82
2022/07/02 09:00:19;;;;;;;2.90;1.15;;;19.00;99.90;;;;;;5015672;28;20112;-82
2022/07/02 09:02:51;;;;;;;3.33;1.00;;;19.00;99.90;;;;;;5025279;28;20084;-82
2022/07/02 09:05:19;;;;;;;3.58;1.25;;;19.10;99.90;;;;;;5021359;28;20084;-81
2022/07/02 09:07:47;;;;;;;2.72;1.65;;;19.10;99.90;;;;;;5021253;28;20129;-81
2022/07/02 09:10:17;;;;;;;1.55;1.23;;;19.20;99.90;;;;;;5025291;28;20546;-82
2022/07/02 09:12:45;;;;;;;2.38;1.38;;;19.20;99.90;;;;;;5026096;28;20077;-81
2022/07/02 09:15:13;;;;;;;5.15;3.03;;;19.20;99.90;;;;;;5014220;28;20125;-81
2022/07/02 09:17:43;;;;;;;2.60;1.17;;;19.30;99.90;;;;;;5017116;28;20129;-80
2022/07/02 09:20:11;;;;;;;1.35;1.23;;;19.50;99.90;;;;;;5029599;28;20108;-82
2022/07/02 09:22:44;;;;;;;2.55;1.20;;;19.50;99.90;;;;;;5031029;28;20108;-82
2022/07/02 09:25:15;;;;;;;2.63;1.30;;;19.50;99.90;;;;;;5025064;28;20081;-82
2022/07/02 09:27:47;;;;;;;3.60;1.45;;;19.50;99.90;;;;;;5032677;28;20514;-81
2022/07/02 09:30:18;;;;;;;3.28;1.02;;;19.60;99.90;;;;;;5032275;28;20052;-80
2022/07/02 09:33:28;;;;;;;3.42;1.10;;;19.60;99.90;;;;;;5033740;28;20069;-81
2022/07/02 09:35:37;;;;;;;2.35;1.33;;;19.80;99.90;;;;;;5021528;28;20092;-80
2022/07/02 09:38:10;;;;;;;2.08;1.20;;;19.80;99.90;;;;;;5028981;28;20534;-81
2022/07/02 09:40:49;;;;;;;3.33;1.23;;;19.80;99.90;;;;;;5021849;28;20575;-81
2022/07/02 09:43:32;;;;;;;1.98;1.35;;;19.90;99.90;;;;;;5032801;28;20048;-81
2022/07/02 09:46:00;;;;;;;2.15;1.20;;;19.90;99.90;;;;;;5012268;28;20463;-81
2022/07/02 09:48:28;;;;;;;4.93;1.08;;;19.90;99.90;;;;;;5034043;28;20126;-82
2022/07/02 09:50:55;;;;;;;2.75;1.23;;;20.00;99.90;;;;;;5021446;28;20076;-78
2022/07/02 09:53:22;;;;;;;4.07;1.20;;;20.10;99.90;;;;;;5026776;28;20061;-81
2022/07/02 09:55:50;;;;;;;1.67;1.00;;;20.10;99.90;;;;;;5027330;28;20088;-82
2022/07/02 09:58:25;;;;;;;1.80;1.00;;;20.20;99.90;;;;;;5025512;28;20045;-81
2022/07/02 10:00:53;;;;;;;0.95;0.90;;;20.20;99.90;;;;;;5022961;28;20104;-81
2022/07/02 10:03:20;;;;;;;2.60;1.17;;;20.20;99.90;;;;;;5033172;28;20044;-81
2022/07/02 10:05:54;;;;;;;5.72;1.20;;;20.20;99.90;;;;;;5032224;28;20495;-82
2022/07/02 10:08:22;;;;;;;3.75;1.40;;;20.30;99.90;;;;;;5022364;28;20053;-80
2022/07/02 10:10:50;;;;;;;2.25;0.85;;;20.30;99.90;;;;;;5028782;28;20049;-82
2022/07/02 10:13:17;;;;;;;2.75;0.70;;;20.40;99.90;;;;;;5033501;28;20054;-82
2022/07/02 10:16:00;;;;;;;1.65;0.90;;;20.50;99.90;;;;;;5027380;28;20506;-82
2022/07/02 10:18:28;;;;;;;2.50;0.90;;;20.60;99.90;;;;;;5027997;28;20050;-82
2022/07/02 10:20:59;;;;;;;3.70;1.08;;;20.60;99.90;;;;;;5034101;28;20056;-82
2022/07/02 10:23:27;;;;;;;2.90;1.08;;;20.70;99.90;;;;;;5026463;28;20050;-81
2022/07/02 10:25:55;;;;;;;1.13;0.88;;;20.70;99.90;;;;;;5029148;28;20124;-82
2022/07/02 10:28:22;;;;;;;3.58;1.00;;;20.70;99.90;;;;;;5035581;28;20046;-82
2022/07/02 10:30:49;;;;;;;1.15;0.80;;;20.70;99.90;;;;;;5028477;28;20130;-81
2022/07/02 10:33:32;;;;;;;10.95;1.38;;;20.70;99.90;;;;;;5032405;28;20072;-82
2022/07/02 10:36:01;;;;;;;4.72;1.08;;;20.80;99.90;;;;;;5032350;28;20136;-82
2022/07/02 10:38:31;;;;;;;1.15;0.70;;;20.80;99.90;;;;;;5025212;28;20206;-82
2022/07/02 10:40:57;;;;;;;2.93;0.70;;;20.80;99.90;;;;;;5025661;28;20088;-82
2022/07/02 10:43:26;;;;;;;2.70;1.00;;;20.90;99.90;;;;;;5027868;28;20364;-82
2022/07/02 10:46:04;;;;;;;1.13;0.65;;;20.90;99.90;;;;;;5025575;28;20557;-82
2022/07/02 10:48:34;;;;;;;0.73;0.60;;;20.90;99.90;;;;;;5030295;28;20069;-82
2022/07/02 10:51:02;;;;;;;2.70;0.80;;;21.00;99.90;;;;;;5024231;28;20133;-82
2022/07/02 10:53:29;;;;;;;0.85;0.70;;;21.00;99.90;;;;;;5028383;28;20419;-81
2022/07/02 10:55:59;;;;;;;2.70;0.90;;;21.20;99.90;;;;;;5030634;28;20562;-82
2022/07/02 10:58:31;;;;;;;1.00;0.80;;;21.20;99.90;;;;;;5018489;28;20523;-82
2022/07/02 11:01:19;;;;;;;3.75;0.90;;;21.20;99.90;;;;;;5020743;28;20057;-82
2022/07/02 11:03:58;;;;;;;2.80;0.75;;;21.20;99.90;;;;;;5029090;28;20483;-82
2022/07/02 11:06:27;;;;;;;1.25;0.70;;;21.20;99.90;;;;;;5022034;28;20129;-82
2022/07/02 11:08:55;;;;;;;2.40;0.63;;;21.20;99.90;;;;;;5011553;28;20045;-81
2022/07/02 11:11:53;;;;;;;2.35;0.82;;;21.30;99.90;;;;;;5023445;28;20042;-82
2022/07/02 11:14:25;;;;;;;1.58;0.75;;;21.40;99.90;;;;;;5020335;28;20050;-82
2022/07/02 11:16:53;;;;;;;4.32;0.88;;;21.50;99.90;;;;;;5017473;28;20529;-81
2022/07/02 11:19:24;;;;;;;1.60;0.50;;;21.60;99.90;;;;;;5024370;28;20045;-82
2022/07/02 11:21:57;;;;;;;2.25;0.80;;;21.60;99.90;;;;;;5024143;28;20050;-81
2022/07/02 11:24:28;;;;;;;1.30;0.77;;;21.60;99.90;;;;;;5027291;28;20052;-81
2022/07/02 11:26:55;;;;;;;2.10;0.88;;;21.60;99.90;;;;;;5027167;28;20189;-81
2022/07/02 11:29:22;;;;;;;0.95;0.70;;;21.60;99.90;;;;;;5034056;28;20076;-80
2022/07/02 11:31:51;;;;;;;0.65;0.57;;;21.60;99.90;;;;;;5020622;28;22397;-80
2022/07/02 11:34:25;;;;;;;3.05;0.70;;;21.80;99.90;;;;;;5017455;28;20478;-81
2022/07/02 11:36:53;;;;;;;3.20;0.73;;;21.90;99.90;;;;;;5026266;28;20130;-80
2022/07/02 11:39:22;;;;;;;2.97;0.63;;;21.80;99.90;;;;;;5023227;28;20487;-80
2022/07/02 11:41:50;;;;;;;4.20;0.90;;;21.80;99.90;;;;;;5020344;28;20153;-81
2022/07/02 11:44:21;;;;;;;1.50;0.60;;;21.90;99.90;;;;;;5017839;28;20045;-80
2022/07/02 11:46:50;;;;;;;1.15;0.73;;;21.90;99.90;;;;;;5017047;28;20041;-81
2022/07/02 11:49:22;;;;;;;0.82;0.60;;;21.80;99.90;;;;;;5023060;28;20050;-80
2022/07/02 11:51:51;;;;;;;1.85;0.70;;;21.90;99.90;;;;;;5024634;28;20100;-82
2022/07/02 11:54:18;;;;;;;2.05;0.85;;;21.90;99.90;;;;;;5027061;28;20041;-81
2022/07/02 11:56:46;;;;;;;4.22;0.90;;;22.00;99.90;;;;;;5033855;28;20534;-81
2022/07/02 11:59:18;;;;;;;2.47;0.77;;;22.00;99.90;;;;;;5030011;28;20099;-81
2022/07/02 12:01:46;;;;;;;2.00;0.93;;;22.30;99.90;;;;;;5025185;28;20049;-81
2022/07/02 12:04:16;;;;;;;1.70;0.80;;;22.30;99.90;;;;;;5025853;28;20041;-81
2022/07/02 12:06:46;;;;;;;1.35;0.90;;;22.30;99.90;;;;;;5016150;28;20061;-81
2022/07/02 12:09:18;;;;;;;1.97;0.70;;;22.30;99.90;;;;;;5018859;28;20074;-81
2022/07/02 12:11:47;;;;;;;2.17;0.77;;;22.40;99.90;;;;;;5024748;28;20128;-80
2022/07/02 12:14:15;;;;;;;2.95;0.80;;;22.40;99.90;;;;;;5023147;28;20098;-81
2022/07/02 12:16:45;;;;;;;1.25;0.80;;;22.40;99.90;;;;;;5021461;28;20095;-81
2022/07/02 12:19:16;;;;;;;3.90;1.00;;;22.40;99.90;;;;;;5019656;28;21363;-82
2022/07/02 12:21:44;;;;;;;0.95;0.85;;;22.40;99.90;;;;;;5025181;28;20583;-81
2022/07/02 12:24:32;;;;;;;1.73;0.95;;;22.50;99.90;;;;;;5027524;28;20136;-82
2022/07/02 12:27:01;;;;;;;2.63;0.77;;;22.70;99.90;;;;;;5026849;28;20481;-81
2022/07/02 12:32:22;;;;;;;0.77;0.77;;;22.60;99.90;;;;;;5026179;28;20136;-81
2022/07/02 12:34:52;;;;;;;1.45;0.80;;;22.70;99.90;;;;;;5021227;28;20054;-82
2022/07/02 12:37:36;;;;;;;1.52;0.65;;;22.70;99.90;;;;;;5022341;28;20128;-83
2022/07/02 12:40:07;;;;;;;1.95;1.10;;;22.70;99.90;;;;;;5023348;28;20109;-81
2022/07/02 12:42:57;;;;;;;3.67;0.70;;;22.70;99.90;;;;;;5022970;28;20060;-82
2022/07/02 12:45:38;;;;;;;1.55;1.10;;;23.00;99.90;;;;;;5023603;28;20049;-81
2022/07/02 12:48:14;;;;;;;1.90;0.75;;;23.10;99.90;;;;;;5026368;28;20051;-81
2022/07/02 12:50:44;;;;;;;2.38;0.80;;;23.00;99.90;;;;;;5027465;28;20076;-82
2022/07/02 12:53:18;;;;;;;3.10;1.00;;;23.00;99.90;;;;;;5030301;28;20479;-81
2022/07/02 12:55:51;;;;;;;2.55;0.73;;;23.00;99.90;;;;;;5034231;28;20076;-82
2022/07/02 12:58:18;;;;;;;2.25;0.95;;;23.00;99.90;;;;;;5030775;28;20053;-82
2022/07/02 13:00:45;;;;;;;2.88;1.02;;;23.20;99.90;;;;;;5029049;28;20128;-79
2022/07/02 13:03:17;;;;;;;1.77;0.68;;;23.30;99.90;;;;;;5035514;28;20049;-80
2022/07/02 13:05:56;;;;;;;4.25;1.00;;;23.40;99.90;;;;;;5033190;28;20043;-81